Huvudsida
METAR-TAF:

METAR-TAF

Flygplatser :

Bodø flygplats

Bodö, Norge

latitud: 67-16N, longitud: 014-22E, höjd: 1 m

Aktuellt väderrapport

Denna rapport gjordes för 17 minuter sedan, klockan 17:50 UTC
Vind 10 kt från väst
Temperatur 14°C
Fuktighet 94%
Tryck 1018 hPa
Sikt 10 km eller mer
Spridda moln på en höjd av 900 ft
Brutna moln på en höjd av 1800 ft
skurar i närheten

METAR: ENBO 191750Z 27010KT 9999 VCSH SCT009 BKN018 14/13 Q1018 TEMPO SCT008 BKN012

Tid: 20:07 (18:07 UTC)

Väderprognos

Denna rapport gjordes för 1 timme och 7 minuter sedan, klockan 17:00 UTC
Prognos gäller från 19 kl. 18 UTC till 20 kl. 18 UTC
Vind 9 kt från väst
Sikt 10 km eller mer
Brutna moln på en höjd av 2000 ft
Temporärt
från 19 kl. 18 UTC till 19 kl. 24 UTC
Brutna moln på en höjd av 1200 ft
Blir
från 20 kl. 06 UTC till 20 kl. 09 UTC
Vind 10 kt från nord
Spridda moln på en höjd av 3000 ft

TAF: ENBO 191700Z 1918/2018 27009KT 9999 BKN020 TEMPO 1918/1924 BKN012 BECMG 2006/2009 36010KT SCT030

Aktuella väderrapporter och prognoser från 4000 flygplatser (METAR- och TAF-rapporter).

De tillgängliga stationerna syns som gula och röda prickar på kartan.

För musen över prickarna för att se namnen på stationerna.

Klicka sedan för att få väderrapporter och prognoser.

För att ändra kartan: Klicka på de gröna knapparna med ett svart kors på för att zooma in; den gröna knappen med ett streck på för att zooma ut; eller på de gröna pilarna för angränsande kartor.


METAR-TAF: